sensor_id;sensor_type;location;lat;lon;timestamp;P1;durP1;ratioP1;P2;durP2;ratioP2
75746;SDS011;64363;52.198;21.020;2023-02-15T00:01:57;78.00;;;31.23;;
75746;SDS011;64363;52.198;21.020;2023-02-15T00:04:23;81.55;;;29.80;;
75746;SDS011;64363;52.198;21.020;2023-02-15T00:07:10;78.00;;;29.25;;
75746;SDS011;64363;52.198;21.020;2023-02-15T00:09:36;72.28;;;28.20;;
75746;SDS011;64363;52.198;21.020;2023-02-15T00:12:01;73.25;;;29.95;;
75746;SDS011;64363;52.198;21.020;2023-02-15T00:14:27;76.68;;;29.30;;
75746;SDS011;64363;52.198;21.020;2023-02-15T00:16:53;74.30;;;31.30;;
75746;SDS011;64363;52.198;21.020;2023-02-15T00:19:20;76.38;;;28.13;;
75746;SDS011;64363;52.198;21.020;2023-02-15T00:21:47;82.70;;;31.38;;
75746;SDS011;64363;52.198;21.020;2023-02-15T00:24:15;75.78;;;28.83;;
75746;SDS011;64363;52.198;21.020;2023-02-15T00:26:42;79.70;;;29.48;;
75746;SDS011;64363;52.198;21.020;2023-02-15T00:29:09;76.10;;;29.05;;
75746;SDS011;64363;52.198;21.020;2023-02-15T00:31:35;78.95;;;31.50;;
75746;SDS011;64363;52.198;21.020;2023-02-15T00:34:02;68.20;;;27.33;;
75746;SDS011;64363;52.198;21.020;2023-02-15T00:36:33;86.82;;;31.55;;
75746;SDS011;64363;52.198;21.020;2023-02-15T00:38:59;85.72;;;29.77;;
75746;SDS011;64363;52.198;21.020;2023-02-15T00:41:25;86.45;;;29.30;;
75746;SDS011;64363;52.198;21.020;2023-02-15T00:43:51;72.15;;;30.50;;
75746;SDS011;64363;52.198;21.020;2023-02-15T00:46:16;72.18;;;29.40;;
75746;SDS011;64363;52.198;21.020;2023-02-15T00:48:42;82.22;;;29.13;;
75746;SDS011;64363;52.198;21.020;2023-02-15T00:51:08;76.10;;;27.20;;
75746;SDS011;64363;52.198;21.020;2023-02-15T00:53:34;77.20;;;29.63;;
75746;SDS011;64363;52.198;21.020;2023-02-15T00:55:59;71.03;;;29.88;;
75746;SDS011;64363;52.198;21.020;2023-02-15T00:58:25;77.22;;;28.08;;
75746;SDS011;64363;52.198;21.020;2023-02-15T01:00:51;73.93;;;29.90;;
75746;SDS011;64363;52.198;21.020;2023-02-15T01:03:17;77.72;;;29.45;;
75746;SDS011;64363;52.198;21.020;2023-02-15T01:05:44;83.95;;;30.92;;
75746;SDS011;64363;52.198;21.020;2023-02-15T01:08:11;76.15;;;27.00;;
75746;SDS011;64363;52.198;21.020;2023-02-15T01:10:37;79.38;;;29.70;;
75746;SDS011;64363;52.198;21.020;2023-02-15T01:13:03;77.82;;;30.17;;
75746;SDS011;64363;52.198;21.020;2023-02-15T01:15:29;83.75;;;29.90;;
75746;SDS011;64363;52.198;21.020;2023-02-15T01:17:55;78.25;;;30.52;;
75746;SDS011;64363;52.198;21.020;2023-02-15T01:20:22;81.85;;;28.15;;
75746;SDS011;64363;52.198;21.020;2023-02-15T01:22:50;90.80;;;31.67;;
75746;SDS011;64363;52.198;21.020;2023-02-15T01:25:19;86.28;;;32.20;;
75746;SDS011;64363;52.198;21.020;2023-02-15T01:27:46;81.53;;;30.55;;
75746;SDS011;64363;52.198;21.020;2023-02-15T01:30:13;82.20;;;32.67;;
75746;SDS011;64363;52.198;21.020;2023-02-15T01:32:40;80.78;;;30.35;;
75746;SDS011;64363;52.198;21.020;2023-02-15T01:35:06;82.47;;;30.33;;
75746;SDS011;64363;52.198;21.020;2023-02-15T01:37:33;81.20;;;30.20;;
75746;SDS011;64363;52.198;21.020;2023-02-15T01:39:59;79.32;;;30.98;;
75746;SDS011;64363;52.198;21.020;2023-02-15T01:42:26;86.40;;;31.20;;
75746;SDS011;64363;52.198;21.020;2023-02-15T01:50:33;81.32;;;30.95;;
75746;SDS011;64363;52.198;21.020;2023-02-15T01:53:46;80.03;;;28.45;;
75746;SDS011;64363;52.198;21.020;2023-02-15T01:56:12;90.45;;;32.58;;
75746;SDS011;64363;52.198;21.020;2023-02-15T01:58:42;83.80;;;30.80;;
75746;SDS011;64363;52.198;21.020;2023-02-15T02:01:08;89.63;;;33.70;;
75746;SDS011;64363;52.198;21.020;2023-02-15T02:03:55;88.93;;;31.10;;
75746;SDS011;64363;52.198;21.020;2023-02-15T02:06:22;77.82;;;31.20;;
75746;SDS011;64363;52.198;21.020;2023-02-15T02:08:49;81.60;;;29.95;;
75746;SDS011;64363;52.198;21.020;2023-02-15T02:11:15;89.88;;;31.98;;
75746;SDS011;64363;52.198;21.020;2023-02-15T02:13:42;76.55;;;32.42;;
75746;SDS011;64363;52.198;21.020;2023-02-15T02:16:24;79.03;;;30.55;;
75746;SDS011;64363;52.198;21.020;2023-02-15T02:37:24;73.57;;;27.60;;
75746;SDS011;64363;52.198;21.020;2023-02-15T02:40:00;88.07;;;30.50;;
75746;SDS011;64363;52.198;21.020;2023-02-15T02:42:34;78.38;;;27.98;;
75746;SDS011;64363;52.198;21.020;2023-02-15T02:47:52;81.20;;;29.58;;
75746;SDS011;64363;52.198;21.020;2023-02-15T02:50:28;83.85;;;28.10;;
75746;SDS011;64363;52.198;21.020;2023-02-15T02:52:56;77.03;;;28.27;;
75746;SDS011;64363;52.198;21.020;2023-02-15T03:00:54;75.45;;;27.70;;
75746;SDS011;64363;52.198;21.020;2023-02-15T03:03:25;86.95;;;30.55;;
75746;SDS011;64363;52.198;21.020;2023-02-15T03:05:56;71.75;;;27.73;;
75746;SDS011;64363;52.198;21.020;2023-02-15T03:08:30;80.03;;;28.33;;
75746;SDS011;64363;52.198;21.020;2023-02-15T03:11:02;77.80;;;29.33;;
75746;SDS011;64363;52.198;21.020;2023-02-15T03:13:28;77.68;;;28.80;;
75746;SDS011;64363;52.198;21.020;2023-02-15T03:15:54;80.55;;;27.10;;
75746;SDS011;64363;52.198;21.020;2023-02-15T03:18:42;80.15;;;28.15;;
75746;SDS011;64363;52.198;21.020;2023-02-15T03:21:21;74.53;;;26.38;;
75746;SDS011;64363;52.198;21.020;2023-02-15T03:23:54;75.65;;;27.30;;
75746;SDS011;64363;52.198;21.020;2023-02-15T03:26:25;76.30;;;28.98;;
75746;SDS011;64363;52.198;21.020;2023-02-15T03:28:53;70.10;;;27.55;;
75746;SDS011;64363;52.198;21.020;2023-02-15T03:31:24;80.68;;;26.77;;
75746;SDS011;64363;52.198;21.020;2023-02-15T03:33:58;73.85;;;26.02;;
75746;SDS011;64363;52.198;21.020;2023-02-15T03:36:33;79.53;;;27.85;;
75746;SDS011;64363;52.198;21.020;2023-02-15T03:40:02;76.50;;;29.27;;
75746;SDS011;64363;52.198;21.020;2023-02-15T03:44:33;70.70;;;27.20;;
75746;SDS011;64363;52.198;21.020;2023-02-15T03:47:13;67.57;;;24.80;;
75746;SDS011;64363;52.198;21.020;2023-02-15T03:52:15;68.78;;;25.05;;
75746;SDS011;64363;52.198;21.020;2023-02-15T03:54:42;61.70;;;23.40;;
75746;SDS011;64363;52.198;21.020;2023-02-15T03:57:11;57.42;;;20.42;;
75746;SDS011;64363;52.198;21.020;2023-02-15T03:59:59;51.47;;;20.58;;
75746;SDS011;64363;52.198;21.020;2023-02-15T04:05:31;51.03;;;21.35;;
75746;SDS011;64363;52.198;21.020;2023-02-15T04:07:57;69.78;;;23.17;;
75746;SDS011;64363;52.198;21.020;2023-02-15T04:10:23;63.33;;;22.15;;
75746;SDS011;64363;52.198;21.020;2023-02-15T04:13:07;61.13;;;23.48;;
75746;SDS011;64363;52.198;21.020;2023-02-15T04:15:33;50.38;;;20.73;;
75746;SDS011;64363;52.198;21.020;2023-02-15T04:18:17;52.67;;;18.90;;
75746;SDS011;64363;52.198;21.020;2023-02-15T04:20:43;52.17;;;19.13;;
75746;SDS011;64363;52.198;21.020;2023-02-15T04:23:29;49.72;;;19.92;;
75746;SDS011;64363;52.198;21.020;2023-02-15T04:26:13;60.08;;;21.55;;
75746;SDS011;64363;52.198;21.020;2023-02-15T04:28:39;53.08;;;20.80;;
75746;SDS011;64363;52.198;21.020;2023-02-15T04:31:05;55.10;;;20.95;;
75746;SDS011;64363;52.198;21.020;2023-02-15T04:33:31;50.60;;;19.83;;
75746;SDS011;64363;52.198;21.020;2023-02-15T04:35:56;57.45;;;20.27;;
75746;SDS011;64363;52.198;21.020;2023-02-15T04:38:22;55.80;;;21.98;;
75746;SDS011;64363;52.198;21.020;2023-02-15T04:40:51;52.15;;;21.20;;
75746;SDS011;64363;52.198;21.020;2023-02-15T04:43:21;48.90;;;20.85;;
75746;SDS011;64363;52.198;21.020;2023-02-15T04:45:50;58.72;;;20.17;;
75746;SDS011;64363;52.198;21.020;2023-02-15T04:48:16;56.13;;;22.02;;
75746;SDS011;64363;52.198;21.020;2023-02-15T04:50:43;57.95;;;22.73;;
75746;SDS011;64363;52.198;21.020;2023-02-15T04:53:10;54.33;;;22.45;;
75746;SDS011;64363;52.198;21.020;2023-02-15T04:55:36;57.08;;;24.25;;
75746;SDS011;64363;52.198;21.020;2023-02-15T04:58:02;57.90;;;22.58;;
75746;SDS011;64363;52.198;21.020;2023-02-15T05:00:27;55.00;;;22.33;;
75746;SDS011;64363;52.198;21.020;2023-02-15T05:02:53;55.45;;;21.73;;
75746;SDS011;64363;52.198;21.020;2023-02-15T05:05:19;57.65;;;22.23;;
75746;SDS011;64363;52.198;21.020;2023-02-15T05:07:45;67.70;;;23.40;;
75746;SDS011;64363;52.198;21.020;2023-02-15T05:10:10;54.50;;;21.85;;
75746;SDS011;64363;52.198;21.020;2023-02-15T05:12:36;49.40;;;20.17;;
75746;SDS011;64363;52.198;21.020;2023-02-15T05:15:02;52.95;;;20.55;;
75746;SDS011;64363;52.198;21.020;2023-02-15T05:17:28;54.25;;;21.20;;
75746;SDS011;64363;52.198;21.020;2023-02-15T05:19:53;53.05;;;20.23;;
75746;SDS011;64363;52.198;21.020;2023-02-15T05:22:19;53.20;;;21.85;;
75746;SDS011;64363;52.198;21.020;2023-02-15T05:24:45;58.45;;;21.27;;
75746;SDS011;64363;52.198;21.020;2023-02-15T05:27:29;48.45;;;20.30;;
75746;SDS011;64363;52.198;21.020;2023-02-15T05:30:13;55.78;;;21.17;;
75746;SDS011;64363;52.198;21.020;2023-02-15T05:32:39;53.83;;;20.13;;
75746;SDS011;64363;52.198;21.020;2023-02-15T05:35:05;52.45;;;20.20;;
75746;SDS011;64363;52.198;21.020;2023-02-15T05:37:32;51.50;;;21.40;;
75746;SDS011;64363;52.198;21.020;2023-02-15T05:39:58;61.33;;;23.95;;
75746;SDS011;64363;52.198;21.020;2023-02-15T05:42:24;58.85;;;22.92;;
75746;SDS011;64363;52.198;21.020;2023-02-15T05:44:50;63.33;;;24.27;;
75746;SDS011;64363;52.198;21.020;2023-02-15T05:47:16;60.97;;;23.48;;
75746;SDS011;64363;52.198;21.020;2023-02-15T05:49:41;64.20;;;26.70;;
75746;SDS011;64363;52.198;21.020;2023-02-15T05:52:07;66.97;;;23.42;;
75746;SDS011;64363;52.198;21.020;2023-02-15T05:54:33;62.60;;;24.50;;
75746;SDS011;64363;52.198;21.020;2023-02-15T05:56:59;61.80;;;21.63;;
75746;SDS011;64363;52.198;21.020;2023-02-15T05:59:24;57.38;;;20.20;;
75746;SDS011;64363;52.198;21.020;2023-02-15T06:01:50;58.97;;;22.65;;
75746;SDS011;64363;52.198;21.020;2023-02-15T06:04:16;60.72;;;22.77;;
75746;SDS011;64363;52.198;21.020;2023-02-15T06:06:42;59.28;;;23.13;;
75746;SDS011;64363;52.198;21.020;2023-02-15T06:09:07;63.78;;;24.90;;
75746;SDS011;64363;52.198;21.020;2023-02-15T06:11:33;62.03;;;23.70;;
75746;SDS011;64363;52.198;21.020;2023-02-15T06:13:58;63.85;;;25.35;;
75746;SDS011;64363;52.198;21.020;2023-02-15T06:16:24;71.03;;;24.92;;
75746;SDS011;64363;52.198;21.020;2023-02-15T06:18:50;57.97;;;23.40;;
75746;SDS011;64363;52.198;21.020;2023-02-15T06:21:16;62.50;;;24.42;;
75746;SDS011;64363;52.198;21.020;2023-02-15T06:23:41;65.57;;;24.58;;
75746;SDS011;64363;52.198;21.020;2023-02-15T06:26:08;58.78;;;22.73;;
75746;SDS011;64363;52.198;21.020;2023-02-15T06:28:34;63.13;;;25.42;;
75746;SDS011;64363;52.198;21.020;2023-02-15T06:30:59;57.22;;;22.25;;
75746;SDS011;64363;52.198;21.020;2023-02-15T06:33:25;59.75;;;24.27;;
75746;SDS011;64363;52.198;21.020;2023-02-15T06:35:51;58.97;;;24.13;;
75746;SDS011;64363;52.198;21.020;2023-02-15T06:38:16;63.47;;;24.08;;
75746;SDS011;64363;52.198;21.020;2023-02-15T06:40:42;61.03;;;24.90;;
75746;SDS011;64363;52.198;21.020;2023-02-15T06:43:08;60.88;;;25.42;;
75746;SDS011;64363;52.198;21.020;2023-02-15T06:45:34;69.30;;;24.02;;
75746;SDS011;64363;52.198;21.020;2023-02-15T06:47:59;66.03;;;26.77;;
75746;SDS011;64363;52.198;21.020;2023-02-15T06:50:25;68.70;;;25.88;;
75746;SDS011;64363;52.198;21.020;2023-02-15T06:53:00;61.67;;;24.77;;
75746;SDS011;64363;52.198;21.020;2023-02-15T06:55:26;66.28;;;26.63;;
75746;SDS011;64363;52.198;21.020;2023-02-15T06:57:51;70.93;;;26.70;;
75746;SDS011;64363;52.198;21.020;2023-02-15T07:00:17;63.92;;;23.80;;
75746;SDS011;64363;52.198;21.020;2023-02-15T07:02:43;54.22;;;20.77;;
75746;SDS011;64363;52.198;21.020;2023-02-15T07:05:09;62.63;;;24.33;;
75746;SDS011;64363;52.198;21.020;2023-02-15T07:07:35;70.30;;;25.02;;
75746;SDS011;64363;52.198;21.020;2023-02-15T07:10:02;61.40;;;25.10;;
75746;SDS011;64363;52.198;21.020;2023-02-15T07:12:27;61.95;;;24.05;;
75746;SDS011;64363;52.198;21.020;2023-02-15T07:15:10;59.13;;;23.05;;
75746;SDS011;64363;52.198;21.020;2023-02-15T07:17:37;61.55;;;23.02;;
75746;SDS011;64363;52.198;21.020;2023-02-15T07:20:04;54.63;;;22.65;;
75746;SDS011;64363;52.198;21.020;2023-02-15T07:22:33;55.53;;;23.77;;
75746;SDS011;64363;52.198;21.020;2023-02-15T07:25:02;69.18;;;28.45;;
75746;SDS011;64363;52.198;21.020;2023-02-15T07:27:28;60.03;;;24.42;;
75746;SDS011;64363;52.198;21.020;2023-02-15T07:29:55;57.67;;;23.35;;
75746;SDS011;64363;52.198;21.020;2023-02-15T07:32:21;55.17;;;21.23;;
75746;SDS011;64363;52.198;21.020;2023-02-15T07:34:47;57.53;;;19.27;;
75746;SDS011;64363;52.198;21.020;2023-02-15T07:37:12;62.65;;;23.80;;
75746;SDS011;64363;52.198;21.020;2023-02-15T07:39:38;63.28;;;24.23;;
75746;SDS011;64363;52.198;21.020;2023-02-15T07:42:04;70.05;;;27.33;;
75746;SDS011;64363;52.198;21.020;2023-02-15T07:44:30;61.15;;;22.88;;
75746;SDS011;64363;52.198;21.020;2023-02-15T07:46:55;70.57;;;25.25;;
75746;SDS011;64363;52.198;21.020;2023-02-15T07:49:21;66.57;;;27.10;;
75746;SDS011;64363;52.198;21.020;2023-02-15T07:51:47;74.55;;;28.63;;
75746;SDS011;64363;52.198;21.020;2023-02-15T07:54:13;71.63;;;28.27;;
75746;SDS011;64363;52.198;21.020;2023-02-15T07:56:38;64.90;;;25.73;;
75746;SDS011;64363;52.198;21.020;2023-02-15T07:59:04;56.17;;;21.48;;
75746;SDS011;64363;52.198;21.020;2023-02-15T08:01:31;56.08;;;19.38;;
75746;SDS011;64363;52.198;21.020;2023-02-15T08:04:00;73.35;;;27.38;;
75746;SDS011;64363;52.198;21.020;2023-02-15T08:06:28;55.17;;;20.90;;
75746;SDS011;64363;52.198;21.020;2023-02-15T08:08:55;66.72;;;22.95;;
75746;SDS011;64363;52.198;21.020;2023-02-15T08:11:22;61.95;;;21.35;;
75746;SDS011;64363;52.198;21.020;2023-02-15T08:16:36;63.00;;;21.20;;
75746;SDS011;64363;52.198;21.020;2023-02-15T08:21:45;57.78;;;19.70;;
75746;SDS011;64363;52.198;21.020;2023-02-15T08:24:14;62.85;;;23.10;;
75746;SDS011;64363;52.198;21.020;2023-02-15T08:26:41;59.40;;;24.88;;
75746;SDS011;64363;52.198;21.020;2023-02-15T08:29:07;44.83;;;16.05;;
75746;SDS011;64363;52.198;21.020;2023-02-15T08:31:33;53.80;;;18.42;;
75746;SDS011;64363;52.198;21.020;2023-02-15T08:34:00;100.50;;;39.00;;
75746;SDS011;64363;52.198;21.020;2023-02-15T08:36:27;49.90;;;20.20;;
75746;SDS011;64363;52.198;21.020;2023-02-15T08:38:56;56.03;;;21.63;;
75746;SDS011;64363;52.198;21.020;2023-02-15T08:41:24;50.38;;;16.98;;
75746;SDS011;64363;52.198;21.020;2023-02-15T08:43:55;50.97;;;20.10;;
75746;SDS011;64363;52.198;21.020;2023-02-15T08:46:22;46.95;;;19.15;;
75746;SDS011;64363;52.198;21.020;2023-02-15T08:48:50;49.50;;;18.27;;
75746;SDS011;64363;52.198;21.020;2023-02-15T08:51:17;47.88;;;19.10;;
75746;SDS011;64363;52.198;21.020;2023-02-15T08:53:46;54.13;;;20.27;;
75746;SDS011;64363;52.198;21.020;2023-02-15T08:56:17;47.20;;;19.30;;
75746;SDS011;64363;52.198;21.020;2023-02-15T08:58:45;42.70;;;16.30;;
75746;SDS011;64363;52.198;21.020;2023-02-15T09:01:11;44.00;;;16.08;;
75746;SDS011;64363;52.198;21.020;2023-02-15T09:03:39;45.55;;;15.00;;
75746;SDS011;64363;52.198;21.020;2023-02-15T09:06:05;61.22;;;21.08;;
75746;SDS011;64363;52.198;21.020;2023-02-15T09:08:32;47.45;;;17.48;;
75746;SDS011;64363;52.198;21.020;2023-02-15T09:11:04;43.88;;;16.85;;
75746;SDS011;64363;52.198;21.020;2023-02-15T09:13:31;42.97;;;14.52;;
75746;SDS011;64363;52.198;21.020;2023-02-15T09:16:00;40.83;;;14.65;;
75746;SDS011;64363;52.198;21.020;2023-02-15T09:18:29;44.40;;;15.43;;
75746;SDS011;64363;52.198;21.020;2023-02-15T09:20:56;48.35;;;17.20;;
75746;SDS011;64363;52.198;21.020;2023-02-15T09:23:22;49.55;;;16.50;;
75746;SDS011;64363;52.198;21.020;2023-02-15T09:25:48;44.40;;;15.93;;
75746;SDS011;64363;52.198;21.020;2023-02-15T09:28:14;40.38;;;16.60;;
75746;SDS011;64363;52.198;21.020;2023-02-15T09:30:39;42.38;;;15.15;;
75746;SDS011;64363;52.198;21.020;2023-02-15T09:33:05;41.60;;;13.55;;
75746;SDS011;64363;52.198;21.020;2023-02-15T09:35:31;40.97;;;14.77;;
75746;SDS011;64363;52.198;21.020;2023-02-15T09:37:58;41.72;;;15.52;;
75746;SDS011;64363;52.198;21.020;2023-02-15T09:40:23;45.50;;;16.55;;
75746;SDS011;64363;52.198;21.020;2023-02-15T09:43:11;40.80;;;16.10;;
75746;SDS011;64363;52.198;21.020;2023-02-15T09:46:39;34.60;;;14.38;;
75746;SDS011;64363;52.198;21.020;2023-02-15T09:48:49;40.00;;;13.30;;
75746;SDS011;64363;52.198;21.020;2023-02-15T09:54:22;51.20;;;19.02;;
75746;SDS011;64363;52.198;21.020;2023-02-15T09:57:00;52.72;;;19.73;;
75746;SDS011;64363;52.198;21.020;2023-02-15T10:20:33;46.10;;;15.50;;
75746;SDS011;64363;52.198;21.020;2023-02-15T10:30:46;34.75;;;13.40;;
75746;SDS011;64363;52.198;21.020;2023-02-15T10:33:24;47.45;;;14.95;;
75746;SDS011;64363;52.198;21.020;2023-02-15T10:47:55;55.00;;;19.08;;
75746;SDS011;64363;52.198;21.020;2023-02-15T10:50:51;45.70;;;16.52;;
75746;SDS011;64363;52.198;21.020;2023-02-15T10:53:24;38.90;;;15.15;;
75746;SDS011;64363;52.198;21.020;2023-02-15T10:58:47;48.90;;;16.05;;
75746;SDS011;64363;52.198;21.020;2023-02-15T11:04:34;45.55;;;16.65;;
75746;SDS011;64363;52.198;21.020;2023-02-15T11:07:12;48.85;;;17.27;;
75746;SDS011;64363;52.198;21.020;2023-02-15T11:09:44;45.78;;;17.05;;
75746;SDS011;64363;52.198;21.020;2023-02-15T11:12:16;49.88;;;19.02;;
75746;SDS011;64363;52.198;21.020;2023-02-15T11:17:39;51.95;;;19.50;;
75746;SDS011;64363;52.198;21.020;2023-02-15T11:22:41;47.20;;;18.65;;
75746;SDS011;64363;52.198;21.020;2023-02-15T11:25:22;46.88;;;16.00;;
75746;SDS011;64363;52.198;21.020;2023-02-15T11:27:51;45.50;;;17.35;;
75746;SDS011;64363;52.198;21.020;2023-02-15T11:30:25;53.03;;;18.08;;
75746;SDS011;64363;52.198;21.020;2023-02-15T11:33:01;53.95;;;18.77;;
75746;SDS011;64363;52.198;21.020;2023-02-15T11:35:35;50.88;;;18.98;;
75746;SDS011;64363;52.198;21.020;2023-02-15T11:38:12;58.25;;;20.77;;
75746;SDS011;64363;52.198;21.020;2023-02-15T11:40:54;61.28;;;20.40;;
75746;SDS011;64363;52.198;21.020;2023-02-15T11:43:28;43.30;;;18.27;;
75746;SDS011;64363;52.198;21.020;2023-02-15T11:46:04;55.90;;;19.45;;
75746;SDS011;64363;52.198;21.020;2023-02-15T11:48:31;54.83;;;18.77;;
75746;SDS011;64363;52.198;21.020;2023-02-15T11:50:57;57.45;;;19.90;;
75746;SDS011;64363;52.198;21.020;2023-02-15T11:53:24;54.40;;;18.63;;
75746;SDS011;64363;52.198;21.020;2023-02-15T11:55:54;55.33;;;18.25;;
75746;SDS011;64363;52.198;21.020;2023-02-15T11:58:35;59.53;;;25.33;;
75746;SDS011;64363;52.198;21.020;2023-02-15T12:11:32;54.47;;;19.33;;
75746;SDS011;64363;52.198;21.020;2023-02-15T12:14:05;52.92;;;19.45;;
75746;SDS011;64363;52.198;21.020;2023-02-15T12:16:34;49.95;;;18.42;;
75746;SDS011;64363;52.198;21.020;2023-02-15T12:19:13;52.20;;;17.05;;
75746;SDS011;64363;52.198;21.020;2023-02-15T12:21:55;60.05;;;21.10;;
75746;SDS011;64363;52.198;21.020;2023-02-15T12:24:29;51.22;;;18.88;;
75746;SDS011;64363;52.198;21.020;2023-02-15T12:27:04;49.67;;;17.63;;
75746;SDS011;64363;52.198;21.020;2023-02-15T12:29:35;62.03;;;21.10;;
75746;SDS011;64363;52.198;21.020;2023-02-15T12:32:08;53.88;;;18.08;;
75746;SDS011;64363;52.198;21.020;2023-02-15T12:34:41;54.63;;;20.33;;
75746;SDS011;64363;52.198;21.020;2023-02-15T12:37:09;53.38;;;18.95;;
75746;SDS011;64363;52.198;21.020;2023-02-15T12:39:55;60.50;;;21.13;;
75746;SDS011;64363;52.198;21.020;2023-02-15T12:42:25;58.05;;;20.85;;
75746;SDS011;64363;52.198;21.020;2023-02-15T12:47:44;59.45;;;22.17;;
75746;SDS011;64363;52.198;21.020;2023-02-15T12:50:23;63.83;;;22.20;;
75746;SDS011;64363;52.198;21.020;2023-02-15T12:53:05;65.85;;;22.05;;
75746;SDS011;64363;52.198;21.020;2023-02-15T12:55:33;61.72;;;22.63;;
75746;SDS011;64363;52.198;21.020;2023-02-15T12:58:06;67.18;;;22.45;;
75746;SDS011;64363;52.198;21.020;2023-02-15T13:00:33;70.97;;;22.50;;
75746;SDS011;64363;52.198;21.020;2023-02-15T13:02:59;61.22;;;21.85;;
75746;SDS011;64363;52.198;21.020;2023-02-15T13:05:36;73.65;;;24.25;;
75746;SDS011;64363;52.198;21.020;2023-02-15T13:10:37;65.45;;;21.58;;
75746;SDS011;64363;52.198;21.020;2023-02-15T13:13:23;60.67;;;20.90;;
75746;SDS011;64363;52.198;21.020;2023-02-15T13:15:53;61.53;;;22.38;;
75746;SDS011;64363;52.198;21.020;2023-02-15T13:19:05;58.92;;;23.02;;
75746;SDS011;64363;52.198;21.020;2023-02-15T13:21:16;56.92;;;19.08;;
75746;SDS011;64363;52.198;21.020;2023-02-15T13:23:50;64.35;;;20.52;;
75746;SDS011;64363;52.198;21.020;2023-02-15T13:26:22;65.55;;;21.13;;
75746;SDS011;64363;52.198;21.020;2023-02-15T13:28:58;71.82;;;24.27;;
75746;SDS011;64363;52.198;21.020;2023-02-15T13:31:34;63.90;;;21.58;;
75746;SDS011;64363;52.198;21.020;2023-02-15T13:34:07;66.03;;;22.58;;
75746;SDS011;64363;52.198;21.020;2023-02-15T13:39:22;76.75;;;25.27;;
75746;SDS011;64363;52.198;21.020;2023-02-15T13:57:02;65.22;;;22.13;;
75746;SDS011;64363;52.198;21.020;2023-02-15T14:02:24;69.88;;;21.05;;
75746;SDS011;64363;52.198;21.020;2023-02-15T14:24:00;71.22;;;23.10;;
75746;SDS011;64363;52.198;21.020;2023-02-15T14:29:52;84.97;;;28.17;;
75746;SDS011;64363;52.198;21.020;2023-02-15T14:34:52;73.25;;;26.58;;
75746;SDS011;64363;52.198;21.020;2023-02-15T14:37:26;80.45;;;24.30;;
75746;SDS011;64363;52.198;21.020;2023-02-15T14:39:58;82.47;;;26.52;;
75746;SDS011;64363;52.198;21.020;2023-02-15T14:48:30;67.43;;;23.92;;
75746;SDS011;64363;52.198;21.020;2023-02-15T14:50:58;75.45;;;25.30;;
75746;SDS011;64363;52.198;21.020;2023-02-15T14:53:40;70.00;;;24.73;;
75746;SDS011;64363;52.198;21.020;2023-02-15T14:58:57;72.88;;;23.23;;
75746;SDS011;64363;52.198;21.020;2023-02-15T15:03:55;65.75;;;22.40;;
75746;SDS011;64363;52.198;21.020;2023-02-15T15:06:35;67.40;;;23.83;;
75746;SDS011;64363;52.198;21.020;2023-02-15T15:11:50;71.50;;;24.67;;
75746;SDS011;64363;52.198;21.020;2023-02-15T15:17:01;70.63;;;23.10;;
75746;SDS011;64363;52.198;21.020;2023-02-15T15:22:22;69.30;;;22.70;;
75746;SDS011;64363;52.198;21.020;2023-02-15T15:32:45;62.45;;;22.08;;
75746;SDS011;64363;52.198;21.020;2023-02-15T15:47:08;69.80;;;21.80;;
75746;SDS011;64363;52.198;21.020;2023-02-15T15:49:30;67.07;;;22.38;;
75746;SDS011;64363;52.198;21.020;2023-02-15T15:52:01;67.35;;;23.48;;
75746;SDS011;64363;52.198;21.020;2023-02-15T15:54:28;66.57;;;21.90;;
75746;SDS011;64363;52.198;21.020;2023-02-15T15:56:57;66.00;;;21.77;;
75746;SDS011;64363;52.198;21.020;2023-02-15T15:59:29;65.55;;;21.98;;
75746;SDS011;64363;52.198;21.020;2023-02-15T16:02:05;57.95;;;19.52;;
75746;SDS011;64363;52.198;21.020;2023-02-15T16:04:32;58.47;;;20.60;;
75746;SDS011;64363;52.198;21.020;2023-02-15T16:10:00;71.88;;;22.88;;
75746;SDS011;64363;52.198;21.020;2023-02-15T16:12:29;64.78;;;19.83;;
75746;SDS011;64363;52.198;21.020;2023-02-15T16:14:57;57.47;;;20.20;;
75746;SDS011;64363;52.198;21.020;2023-02-15T16:20:29;66.57;;;22.63;;
75746;SDS011;64363;52.198;21.020;2023-02-15T16:28:27;64.90;;;23.02;;
75746;SDS011;64363;52.198;21.020;2023-02-15T16:31:06;70.07;;;22.02;;
75746;SDS011;64363;52.198;21.020;2023-02-15T16:33:38;70.95;;;22.73;;
75746;SDS011;64363;52.198;21.020;2023-02-15T16:36:04;65.65;;;22.00;;
75746;SDS011;64363;52.198;21.020;2023-02-15T16:41:08;88.85;;;37.97;;
75746;SDS011;64363;52.198;21.020;2023-02-15T16:43:37;65.10;;;23.45;;
75746;SDS011;64363;52.198;21.020;2023-02-15T16:46:05;61.35;;;21.45;;
75746;SDS011;64363;52.198;21.020;2023-02-15T16:48:38;72.65;;;23.13;;
75746;SDS011;64363;52.198;21.020;2023-02-15T16:51:07;70.13;;;22.83;;
75746;SDS011;64363;52.198;21.020;2023-02-15T16:53:34;79.47;;;26.65;;
75746;SDS011;64363;52.198;21.020;2023-02-15T16:56:02;71.50;;;24.92;;
75746;SDS011;64363;52.198;21.020;2023-02-15T16:58:37;69.47;;;25.65;;
75746;SDS011;64363;52.198;21.020;2023-02-15T17:01:10;71.95;;;25.58;;
75746;SDS011;64363;52.198;21.020;2023-02-15T17:03:39;72.18;;;26.63;;
75746;SDS011;64363;52.198;21.020;2023-02-15T17:06:18;66.85;;;25.27;;
75746;SDS011;64363;52.198;21.020;2023-02-15T17:08:47;66.85;;;24.90;;
75746;SDS011;64363;52.198;21.020;2023-02-15T17:11:20;74.80;;;27.65;;
75746;SDS011;64363;52.198;21.020;2023-02-15T17:16:44;69.93;;;24.20;;
75746;SDS011;64363;52.198;21.020;2023-02-15T17:19:19;69.07;;;24.20;;
75746;SDS011;64363;52.198;21.020;2023-02-15T17:21:58;68.97;;;24.70;;
75746;SDS011;64363;52.198;21.020;2023-02-15T17:26:55;65.38;;;23.80;;
75746;SDS011;64363;52.198;21.020;2023-02-15T17:32:27;73.60;;;25.70;;
75746;SDS011;64363;52.198;21.020;2023-02-15T17:37:47;72.88;;;24.65;;
75746;SDS011;64363;52.198;21.020;2023-02-15T17:42:44;71.53;;;26.15;;
75746;SDS011;64363;52.198;21.020;2023-02-15T17:45:10;81.43;;;25.42;;
75746;SDS011;64363;52.198;21.020;2023-02-15T17:47:36;82.70;;;27.23;;
75746;SDS011;64363;52.198;21.020;2023-02-15T17:50:02;68.07;;;25.10;;
75746;SDS011;64363;52.198;21.020;2023-02-15T17:52:29;70.88;;;26.85;;
75746;SDS011;64363;52.198;21.020;2023-02-15T17:55:00;77.22;;;27.75;;
75746;SDS011;64363;52.198;21.020;2023-02-15T17:57:56;65.15;;;26.42;;
75746;SDS011;64363;52.198;21.020;2023-02-15T18:00:22;70.07;;;25.13;;
75746;SDS011;64363;52.198;21.020;2023-02-15T18:03:08;78.78;;;27.67;;
75746;SDS011;64363;52.198;21.020;2023-02-15T18:05:55;76.18;;;26.80;;
75746;SDS011;64363;52.198;21.020;2023-02-15T18:08:40;73.57;;;26.13;;
75746;SDS011;64363;52.198;21.020;2023-02-15T18:11:24;71.93;;;25.88;;
75746;SDS011;64363;52.198;21.020;2023-02-15T18:14:09;67.07;;;26.35;;
75746;SDS011;64363;52.198;21.020;2023-02-15T18:16:36;78.80;;;27.13;;